Terminal Aerodrome Forecast
Issued by NWS Cleveland, OH

Home | Current Version | Previous Version | Graphics & Text | Print | Product List | Glossary On
Versions: 1 2 3 4 5 6 7 8 9 10 11 12 13 14 15
000
FTUS41 KCLE 270500
TAFTOL
TAF
KTOL 270521Z 2706/2806 31008KT P6SM OVC045
     FM271000 33010KT P6SM BKN020
     FM271500 31009KT P6SM BKN035
     FM280000 01007KT P6SM BKN100
     FM280400 03006KT P6SM SCT250=

USA.gov is the U.S. government's official web portal to all federal, state and local government web resources and services.